Time;durP1;ratioP1;P1;durP2;ratioP2;P2;SDS_P1;SDS_P2;PMS_P1;PMS_P2;Temp;Humidity;BMP_temperature;BMP_pressure;BME280_temperature;BME280_humidity;BME280_pressure;Samples;Min_cycle;Max_cycle;Signal;HPM_P1;HPM_P2
2023/03/20 00:01:16;;;;;;;16.90;6.78;;;;;;;;;;5120344;27;20059;-73
2023/03/20 00:03:43;;;;;;;17.05;8.63;;;;;;;;;;5107760;27;20056;-74
2023/03/20 00:06:23;;;;;;;13.68;8.05;;;;;;;;;;5119018;27;20052;-73
2023/03/20 00:08:51;;;;;;;13.32;7.72;;;;;;;;;;5111315;27;20059;-73
2023/03/20 00:11:28;;;;;;;18.48;8.85;;;;;;;;;;5121001;27;20134;-73
2023/03/20 00:14:01;;;;;;;25.15;9.00;;;;;;;;;;5106085;28;20054;-73
2023/03/20 00:16:30;;;;;;;16.77;8.85;;;;;;;;;;5110164;27;20511;-75
2023/03/20 00:18:57;;;;;;;13.07;9.35;;;;;;;;;;5108165;27;20135;-75
2023/03/20 00:21:24;;;;;;;22.70;10.40;;;;;;;;;;5108348;27;20056;-75
2023/03/20 00:23:50;;;;;;;20.13;9.85;;;;;;;;;;5107489;27;20114;-73
2023/03/20 00:26:18;;;;;;;20.65;9.88;;;;;;;;;;5111592;28;20508;-75
2023/03/20 00:28:46;;;;;;;20.98;10.75;;;;;;;;;;5102444;27;20145;-74
2023/03/20 00:31:23;;;;;;;15.07;9.88;;;;;;;;;;5117365;28;20076;-75
2023/03/20 00:33:57;;;;;;;19.88;11.00;;;;;;;;;;5101255;28;20103;-75
2023/03/20 00:36:23;;;;;;;;;;;;;;;;;;5102648;28;20095;-74
2023/03/20 00:38:50;;;;;;;25.77;11.45;;;;;;;;;;5108179;28;35552;-74
2023/03/20 00:41:22;;;;;;;17.85;11.30;;;;;;;;;;5120984;28;20561;-74
2023/03/20 00:43:51;;;;;;;16.63;10.77;;;;;;;;;;5121648;27;20558;-74
2023/03/20 00:46:18;;;;;;;19.80;12.55;;;;;;;;;;5121883;27;21013;-75
2023/03/20 00:48:45;;;;;;;26.10;13.25;;;;;;;;;;5119583;28;20830;-75
2023/03/20 00:51:12;;;;;;;22.63;13.45;;;;;;;;;;5121623;27;20071;-74
2023/03/20 00:53:38;;;;;;;23.65;13.63;;;;;;;;;;5105498;27;20054;-74
2023/03/20 00:56:05;;;;;;;18.73;13.80;;;;;;;;;;5100097;28;20136;-74
2023/03/20 00:58:31;;;;;;;22.58;15.43;;;;;;;;;;5105395;28;20052;-75
2023/03/20 01:00:58;;;;;;;23.98;14.25;;;;;;;;;;5104621;28;20972;-74
2023/03/20 01:03:25;;;;;;;19.65;13.88;;;;;;;;;;5129656;27;20098;-75
2023/03/20 01:05:51;;;;;;;20.85;12.85;;;;;;;;;;5111979;27;20072;-75
2023/03/20 01:08:22;;;;;;;18.63;11.70;;;;;;;;;;5115019;28;20135;-74
2023/03/20 01:10:50;;;;;;;17.67;10.85;;;;;;;;;;5114237;27;20055;-74
2023/03/20 01:13:19;;;;;;;13.90;9.70;;;;;;;;;;5109067;28;20082;-74
2023/03/20 01:15:46;;;;;;;14.35;9.05;;;;;;;;;;5120359;27;20703;-74
2023/03/20 01:18:13;;;;;;;10.90;9.25;;;;;;;;;;5114582;28;20078;-74
2023/03/20 01:20:40;;;;;;;18.10;9.75;;;;;;;;;;5119956;27;20145;-74
2023/03/20 01:23:07;;;;;;;14.50;8.90;;;;;;;;;;5101995;27;20052;-74
2023/03/20 01:25:33;;;;;;;11.20;9.00;;;;;;;;;;5118555;28;20110;-75
2023/03/20 01:28:00;;;;;;;13.43;8.75;;;;;;;;;;5116675;28;20427;-74
2023/03/20 01:30:28;;;;;;;12.18;8.98;;;;;;;;;;5111102;27;20048;-74
2023/03/20 01:32:55;;;;;;;16.55;9.30;;;;;;;;;;5125668;27;20056;-74
2023/03/20 01:35:23;;;;;;;19.48;9.90;;;;;;;;;;5114568;28;20043;-74
2023/03/20 01:37:51;;;;;;;14.25;8.38;;;;;;;;;;5106240;27;20055;-74
2023/03/20 01:40:32;;;;;;;13.68;9.43;;;;;;;;;;5116250;28;20048;-74
2023/03/20 01:43:02;;;;;;;15.90;10.75;;;;;;;;;;5113605;28;20056;-74
2023/03/20 01:45:31;;;;;;;13.25;9.77;;;;;;;;;;5116907;27;20885;-74
2023/03/20 01:47:59;;;;;;;15.55;10.45;;;;;;;;;;5099310;28;20139;-74
2023/03/20 01:50:30;;;;;;;13.30;9.75;;;;;;;;;;5103071;28;20127;-74
2023/03/20 01:53:08;;;;;;;13.85;10.07;;;;;;;;;;5109961;28;20083;-74
2023/03/20 01:55:41;;;;;;;14.88;10.30;;;;;;;;;;5099003;28;20517;-73
2023/03/20 01:58:13;;;;;;;10.65;8.88;;;;;;;;;;5110417;28;20052;-74
2023/03/20 02:00:41;;;;;;;14.20;10.02;;;;;;;;;;5106713;28;20052;-74
2023/03/20 02:03:14;;;;;;;14.33;9.43;;;;;;;;;;5099652;27;20051;-75
2023/03/20 02:05:58;;;;;;;13.10;9.90;;;;;;;;;;5110831;28;20417;-75
2023/03/20 02:08:35;;;;;;;13.57;9.40;;;;;;;;;;5133339;27;20052;-75
2023/03/20 02:11:03;;;;;;;16.27;8.93;;;;;;;;;;5114100;28;20861;-75
2023/03/20 02:13:30;;;;;;;13.52;9.30;;;;;;;;;;5105669;28;20111;-75
2023/03/20 02:16:02;;;;;;;16.27;7.80;;;;;;;;;;5112511;28;20062;-74
2023/03/20 02:18:49;;;;;;;12.63;7.88;;;;;;;;;;5118490;28;20110;-74
2023/03/20 02:21:39;;;;;;;8.60;7.75;;;;;;;;;;5108328;27;20055;-74
2023/03/20 02:24:24;;;;;;;10.85;6.72;;;;;;;;;;5114592;28;20055;-74
2023/03/20 02:27:10;;;;;;;10.48;6.18;;;;;;;;;;5106485;28;20048;-74
2023/03/20 02:29:44;;;;;;;9.98;7.03;;;;;;;;;;5111496;28;20060;-74
2023/03/20 02:32:23;;;;;;;7.97;6.15;;;;;;;;;;5110588;28;20054;-74
2023/03/20 02:35:09;;;;;;;10.95;6.18;;;;;;;;;;5109900;28;20052;-74
2023/03/20 02:37:42;;;;;;;10.98;6.43;;;;;;;;;;5115539;28;20079;-74
2023/03/20 02:40:10;;;;;;;10.70;6.20;;;;;;;;;;5114971;28;20135;-74
2023/03/20 02:42:57;;;;;;;10.60;6.75;;;;;;;;;;5113674;28;20550;-74
2023/03/20 02:45:27;;;;;;;13.52;6.53;;;;;;;;;;5113809;28;20117;-74
2023/03/20 02:48:12;;;;;;;11.73;6.25;;;;;;;;;;5104646;28;20055;-74
2023/03/20 02:50:50;;;;;;;10.82;6.28;;;;;;;;;;5106661;28;20114;-74
2023/03/20 02:53:27;;;;;;;15.48;6.72;;;;;;;;;;5112266;28;20090;-74
2023/03/20 02:56:19;;;;;;;14.35;7.13;;;;;;;;;;5107419;28;20059;-74
2023/03/20 02:59:06;;;;;;;12.43;7.28;;;;;;;;;;5113187;28;20581;-74
2023/03/20 03:01:36;;;;;;;14.50;8.20;;;;;;;;;;5110498;28;20064;-74
2023/03/20 03:04:06;;;;;;;17.63;9.32;;;;;;;;;;5103567;28;20150;-74
2023/03/20 03:06:35;;;;;;;15.02;8.70;;;;;;;;;;5117518;28;20075;-75
2023/03/20 03:09:08;;;;;;;16.50;9.32;;;;;;;;;;5104965;28;20048;-74
2023/03/20 03:11:38;;;;;;;20.95;10.50;;;;;;;;;;5109664;28;20062;-75
2023/03/20 03:14:06;;;;;;;12.95;9.40;;;;;;;;;;5116532;28;20479;-74
2023/03/20 03:16:33;;;;;;;15.63;10.88;;;;;;;;;;5113635;28;20605;-74
2023/03/20 03:19:20;;;;;;;18.42;9.25;;;;;;;;;;5112396;28;20055;-74
2023/03/20 03:21:47;;;;;;;16.08;10.05;;;;;;;;;;5109483;27;20659;-75
2023/03/20 03:24:21;;;;;;;21.42;10.98;;;;;;;;;;5108079;28;20048;-75
2023/03/20 03:27:09;;;;;;;18.17;10.55;;;;;;;;;;5117011;28;20047;-74
2023/03/20 03:29:38;;;;;;;21.45;10.75;;;;;;;;;;5112762;28;20783;-75
2023/03/20 03:32:06;;;;;;;22.90;10.40;;;;;;;;;;5115096;28;20052;-74
2023/03/20 03:34:33;;;;;;;17.60;10.40;;;;;;;;;;5108782;28;20633;-74
2023/03/20 03:37:09;;;;;;;20.88;10.40;;;;;;;;;;5108496;28;20076;-74
2023/03/20 03:39:50;;;;;;;17.58;10.77;;;;;;;;;;5106074;28;20048;-74
2023/03/20 03:42:30;;;;;;;19.30;11.90;;;;;;;;;;5110241;28;20055;-74
2023/03/20 03:45:06;;;;;;;21.27;10.98;;;;;;;;;;5116085;28;20099;-75
2023/03/20 03:47:43;;;;;;;25.15;12.98;;;;;;;;;;5102413;28;20084;-75
2023/03/20 03:50:21;;;;;;;17.90;11.55;;;;;;;;;;5111130;28;20079;-74
2023/03/20 03:52:49;;;;;;;22.00;12.32;;;;;;;;;;5113041;28;20056;-75
2023/03/20 03:55:21;;;;;;;28.45;13.20;;;;;;;;;;5120225;28;20043;-74
2023/03/20 03:58:03;;;;;;;19.42;13.52;;;;;;;;;;5130760;27;20571;-74
2023/03/20 04:00:31;;;;;;;22.73;14.02;;;;;;;;;;5115300;28;20087;-74
2023/03/20 04:02:57;;;;;;;24.10;13.57;;;;;;;;;;5107838;28;20127;-74
2023/03/20 04:05:28;;;;;;;24.90;13.52;;;;;;;;;;5115495;28;20047;-74
2023/03/20 04:07:57;;;;;;;28.05;15.05;;;;;;;;;;5112371;28;20099;-74
2023/03/20 04:10:23;;;;;;;26.38;15.43;;;;;;;;;;5110227;28;20468;-75
2023/03/20 04:12:50;;;;;;;24.05;14.55;;;;;;;;;;5115838;27;20115;-75
2023/03/20 04:15:16;;;;;;;27.10;14.52;;;;;;;;;;5101540;28;20433;-75
2023/03/20 04:17:43;;;;;;;29.52;15.02;;;;;;;;;;5118825;28;20052;-74
2023/03/20 04:20:11;;;;;;;26.52;15.98;;;;;;;;;;5100403;28;20071;-74
2023/03/20 04:22:38;;;;;;;26.83;15.25;;;;;;;;;;5107486;28;20059;-75
2023/03/20 04:25:16;;;;;;;30.83;13.98;;;;;;;;;;5101914;28;20748;-74
2023/03/20 04:27:43;;;;;;;25.23;13.80;;;;;;;;;;5106931;28;20048;-75
2023/03/20 04:30:19;;;;;;;23.23;14.32;;;;;;;;;;5104262;28;20599;-74
2023/03/20 04:33:08;;;;;;;29.60;14.88;;;;;;;;;;5092512;27;20055;-74
2023/03/20 04:35:58;;;;;;;24.75;15.35;;;;;;;;;;5109222;28;20051;-74
2023/03/20 04:38:24;;;;;;;27.27;15.63;;;;;;;;;;5123483;28;20040;-74
2023/03/20 04:40:52;;;;;;;22.05;14.48;;;;;;;;;;5107795;27;20040;-74
2023/03/20 04:43:19;;;;;;;25.50;14.68;;;;;;;;;;5109824;28;20440;-75
2023/03/20 04:45:45;;;;;;;25.90;16.92;;;;;;;;;;5115910;28;20076;-75
2023/03/20 04:48:12;;;;;;;27.60;15.73;;;;;;;;;;5117670;28;20047;-75
2023/03/20 04:50:39;;;;;;;24.88;15.43;;;;;;;;;;5120232;28;20047;-75
2023/03/20 04:53:06;;;;;;;26.33;15.65;;;;;;;;;;5106945;28;20079;-74
2023/03/20 04:55:32;;;;;;;32.58;16.17;;;;;;;;;;5112255;28;20084;-74
2023/03/20 04:57:59;;;;;;;23.88;15.50;;;;;;;;;;5102106;28;20106;-74
2023/03/20 05:00:27;;;;;;;29.98;16.55;;;;;;;;;;5114433;28;20060;-74
2023/03/20 05:02:54;;;;;;;25.60;15.85;;;;;;;;;;5115569;27;20090;-75
2023/03/20 05:05:21;;;;;;;21.90;16.23;;;;;;;;;;5115258;28;20154;-74
2023/03/20 05:07:48;;;;;;;24.90;15.95;;;;;;;;;;5117868;28;20052;-74
2023/03/20 05:10:22;;;;;;;29.65;17.17;;;;;;;;;;5111426;27;20105;-74
2023/03/20 05:12:55;;;;;;;27.75;16.60;;;;;;;;;;5104181;28;20055;-74
2023/03/20 05:15:34;;;;;;;30.30;16.98;;;;;;;;;;5113237;28;20058;-74
2023/03/20 05:18:14;;;;;;;29.08;16.42;;;;;;;;;;5132727;27;20194;-74
2023/03/20 05:20:52;;;;;;;30.00;16.02;;;;;;;;;;5113439;27;20048;-73
2023/03/20 05:23:39;;;;;;;27.00;16.52;;;;;;;;;;5109301;27;20055;-74
2023/03/20 05:26:28;;;;;;;25.45;15.88;;;;;;;;;;5114310;28;20043;-74
2023/03/20 05:29:13;;;;;;;25.70;17.13;;;;;;;;;;5107411;28;20154;-74
2023/03/20 05:31:58;;;;;;;24.98;16.27;;;;;;;;;;5109290;28;20565;-74
2023/03/20 05:34:36;;;;;;;32.30;17.63;;;;;;;;;;5110216;27;20044;-74
2023/03/20 05:37:09;;;;;;;;;;;;;;;;;;5112565;28;20060;-74
2023/03/20 05:39:55;;;;;;;26.30;16.92;;;;;;;;;;5111170;28;20315;-74
2023/03/20 05:42:40;;;;;;;22.85;16.33;;;;;;;;;;5116519;27;20063;-74
2023/03/20 05:45:24;;;;;;;20.92;16.58;;;;;;;;;;5116178;28;20058;-74
2023/03/20 05:48:16;;;;;;;30.00;18.60;;;;;;;;;;5111814;28;20509;-74
2023/03/20 05:50:52;;;;;;;22.75;16.75;;;;;;;;;;5108967;28;20526;-74
2023/03/20 05:53:57;;;;;;;20.17;16.23;;;;;;;;;;5074598;28;20563;-73
2023/03/20 05:56:52;;;;;;;23.38;16.02;;;;;;;;;;5047083;28;20052;-74
2023/03/20 05:59:26;;;;;;;28.75;17.45;;;;;;;;;;5097736;28;20052;-74
2023/03/20 06:02:11;;;;;;;24.38;16.17;;;;;;;;;;5111511;28;20059;-73
2023/03/20 06:04:44;;;;;;;25.48;16.70;;;;;;;;;;5102879;28;20052;-74
2023/03/20 06:07:19;;;;;;;24.48;16.25;;;;;;;;;;5110748;28;20421;-74
2023/03/20 06:09:55;;;;;;;26.95;16.23;;;;;;;;;;5111487;28;20052;-74
2023/03/20 06:12:21;;;;;;;24.70;14.85;;;;;;;;;;5116804;28;20500;-73
2023/03/20 06:14:47;;;;;;;25.52;16.30;;;;;;;;;;5121651;27;20098;-72
2023/03/20 06:17:14;;;;;;;26.50;15.65;;;;;;;;;;5112983;28;20058;-74
2023/03/20 06:19:45;;;;;;;23.10;15.23;;;;;;;;;;5113618;28;20691;-74
2023/03/20 06:22:11;;;;;;;21.92;15.95;;;;;;;;;;5116912;28;20040;-73
2023/03/20 06:24:38;;;;;;;24.25;15.75;;;;;;;;;;5120876;27;20065;-74
2023/03/20 06:27:05;;;;;;;25.08;16.42;;;;;;;;;;5107000;28;20537;-73
2023/03/20 06:29:31;;;;;;;29.27;14.70;;;;;;;;;;5109694;28;20045;-73
2023/03/20 06:32:11;;;;;;;28.88;16.42;;;;;;;;;;5109275;27;20048;-73
2023/03/20 06:34:37;;;;;;;28.77;16.40;;;;;;;;;;5118118;27;20044;-74
2023/03/20 06:37:04;;;;;;;21.90;15.23;;;;;;;;;;5109573;28;20048;-73
2023/03/20 06:39:31;;;;;;;26.75;15.15;;;;;;;;;;5121125;28;20139;-73
2023/03/20 06:41:58;;;;;;;22.08;14.77;;;;;;;;;;5108978;28;20055;-73
2023/03/20 06:44:25;;;;;;;21.83;13.48;;;;;;;;;;5112355;28;20206;-72
2023/03/20 06:47:12;;;;;;;25.90;14.30;;;;;;;;;;5107677;28;20514;-73
2023/03/20 06:49:39;;;;;;;24.70;15.57;;;;;;;;;;5115033;28;20488;-72
2023/03/20 06:52:07;;;;;;;21.52;13.45;;;;;;;;;;5107342;28;20098;-72
2023/03/20 06:54:36;;;;;;;24.38;15.10;;;;;;;;;;5113284;28;20045;-72
2023/03/20 06:57:02;;;;;;;23.00;15.35;;;;;;;;;;5106279;28;20060;-73
2023/03/20 06:59:29;;;;;;;27.60;16.27;;;;;;;;;;5109046;28;20068;-73
2023/03/20 07:01:57;;;;;;;21.10;14.57;;;;;;;;;;5112005;28;20074;-73
2023/03/20 07:04:24;;;;;;;22.08;13.07;;;;;;;;;;5113721;28;20056;-74
2023/03/20 07:06:54;;;;;;;16.25;12.77;;;;;;;;;;5116804;28;20054;-73
2023/03/20 07:09:23;;;;;;;24.80;14.27;;;;;;;;;;5111425;28;20055;-76
2023/03/20 07:11:50;;;;;;;22.27;13.60;;;;;;;;;;5112852;28;20600;-74
2023/03/20 07:14:16;;;;;;;23.42;13.43;;;;;;;;;;5112152;27;20056;-73
2023/03/20 07:16:55;;;;;;;20.92;13.32;;;;;;;;;;5116194;28;20055;-73
2023/03/20 07:19:21;;;;;;;24.42;13.93;;;;;;;;;;5109075;28;20551;-72
2023/03/20 07:21:54;;;;;;;24.23;13.45;;;;;;;;;;5108119;27;20107;-73
2023/03/20 07:24:21;;;;;;;18.30;12.52;;;;;;;;;;5135335;27;20052;-73
2023/03/20 07:26:47;;;;;;;23.02;13.77;;;;;;;;;;5115435;27;20074;-73
2023/03/20 07:29:15;;;;;;;25.55;13.02;;;;;;;;;;5107629;28;20044;-73
2023/03/20 07:31:45;;;;;;;19.60;13.70;;;;;;;;;;5118304;27;20037;-72
2023/03/20 07:34:22;;;;;;;21.42;12.95;;;;;;;;;;5110362;27;20040;-73
2023/03/20 07:36:51;;;;;;;21.35;12.55;;;;;;;;;;5110068;28;20052;-74
2023/03/20 07:39:20;;;;;;;25.08;12.25;;;;;;;;;;5108016;28;20052;-73
2023/03/20 07:42:05;;;;;;;22.02;12.32;;;;;;;;;;5120204;28;20071;-72
2023/03/20 07:44:51;;;;;;;27.33;11.95;;;;;;;;;;5105770;28;20055;-73
2023/03/20 07:47:17;;;;;;;18.80;11.38;;;;;;;;;;5118929;28;20114;-72
2023/03/20 07:49:45;;;;;;;19.27;12.18;;;;;;;;;;5121327;28;20186;-72
2023/03/20 07:52:12;;;;;;;23.52;11.48;;;;;;;;;;5105789;28;20048;-72
2023/03/20 07:54:38;;;;;;;19.80;11.95;;;;;;;;;;5104389;28;20067;-73
2023/03/20 07:57:04;;;;;;;15.25;9.98;;;;;;;;;;5118910;27;20044;-72
2023/03/20 07:59:31;;;;;;;19.40;11.68;;;;;;;;;;5117063;28;20536;-72
2023/03/20 08:01:57;;;;;;;19.02;10.65;;;;;;;;;;5121102;28;20056;-72
2023/03/20 08:04:24;;;;;;;16.65;10.27;;;;;;;;;;5112870;28;20071;-72
2023/03/20 08:06:50;;;;;;;19.23;10.52;;;;;;;;;;5114542;27;20087;-72
2023/03/20 08:09:17;;;;;;;22.70;11.85;;;;;;;;;;5110215;28;20070;-73
2023/03/20 08:11:44;;;;;;;18.83;9.35;;;;;;;;;;5110553;28;20434;-73
2023/03/20 08:14:10;;;;;;;17.90;9.90;;;;;;;;;;5120460;27;20048;-73
2023/03/20 08:16:37;;;;;;;19.67;10.23;;;;;;;;;;5117374;28;20055;-73
2023/03/20 08:19:05;;;;;;;20.98;10.05;;;;;;;;;;5102497;27;20106;-72
2023/03/20 08:21:31;;;;;;;13.68;9.23;;;;;;;;;;5107269;28;20095;-73
2023/03/20 08:23:58;;;;;;;23.25;10.65;;;;;;;;;;5108773;28;20080;-73
2023/03/20 08:26:24;;;;;;;19.35;10.48;;;;;;;;;;5109211;27;20056;-72
2023/03/20 08:28:50;;;;;;;17.80;9.13;;;;;;;;;;5113824;28;20044;-73
2023/03/20 08:31:18;;;;;;;16.73;9.27;;;;;;;;;;5105391;28;20040;-73
2023/03/20 08:33:45;;;;;;;17.35;9.63;;;;;;;;;;5113703;28;20056;-73
2023/03/20 08:36:14;;;;;;;17.75;8.70;;;;;;;;;;5110424;28;20123;-73
2023/03/20 08:38:40;;;;;;;17.65;8.77;;;;;;;;;;5120383;27;20055;-73
2023/03/20 08:41:07;;;;;;;14.80;8.52;;;;;;;;;;5111082;28;20500;-73
2023/03/20 08:43:33;;;;;;;25.42;8.43;;;;;;;;;;5119803;28;20498;-73
2023/03/20 08:46:00;;;;;;;14.68;7.60;;;;;;;;;;5119475;28;20116;-73
2023/03/20 08:48:26;;;;;;;11.63;7.45;;;;;;;;;;5104819;28;20045;-73
2023/03/20 08:50:53;;;;;;;18.08;8.23;;;;;;;;;;5112500;28;20052;-73
2023/03/20 08:53:19;;;;;;;18.90;7.45;;;;;;;;;;5119507;27;20083;-73
2023/03/20 08:55:48;;;;;;;23.27;8.50;;;;;;;;;;5107800;27;20419;-73
2023/03/20 08:58:15;;;;;;;16.67;8.75;;;;;;;;;;5105154;28;20076;-73
2023/03/20 09:00:41;;;;;;;18.70;8.40;;;;;;;;;;5112638;28;20055;-73
2023/03/20 09:03:13;;;;;;;14.27;7.80;;;;;;;;;;5112027;28;20059;-73
2023/03/20 09:05:40;;;;;;;12.80;7.63;;;;;;;;;;5110675;27;20060;-73
2023/03/20 09:08:07;;;;;;;14.43;8.10;;;;;;;;;;5107923;28;20356;-73
2023/03/20 09:10:34;;;;;;;16.33;8.32;;;;;;;;;;5110710;28;20111;-73
2023/03/20 09:13:00;;;;;;;23.15;8.43;;;;;;;;;;5108386;28;20060;-73
2023/03/20 09:15:41;;;;;;;16.23;7.25;;;;;;;;;;5112064;28;20050;-73
2023/03/20 09:18:08;;;;;;;16.35;7.28;;;;;;;;;;5107225;27;20171;-73
2023/03/20 09:20:34;;;;;;;11.48;7.88;;;;;;;;;;5107368;27;20059;-73
2023/03/20 09:23:01;;;;;;;13.77;7.90;;;;;;;;;;5111065;27;20577;-73
2023/03/20 09:25:27;;;;;;;19.77;7.95;;;;;;;;;;5115630;28;20047;-73
2023/03/20 09:27:54;;;;;;;16.52;7.75;;;;;;;;;;5107057;28;20530;-74
2023/03/20 09:30:22;;;;;;;13.55;7.43;;;;;;;;;;5116280;27;20044;-74
2023/03/20 09:32:49;;;;;;;17.52;7.15;;;;;;;;;;5111079;28;20492;-74
2023/03/20 09:35:15;;;;;;;11.45;7.07;;;;;;;;;;5105478;27;20982;-73
2023/03/20 09:37:42;;;;;;;17.45;6.75;;;;;;;;;;5118966;28;20135;-73
2023/03/20 09:40:18;;;;;;;18.52;7.68;;;;;;;;;;5107659;27;20056;-73
2023/03/20 09:42:56;;;;;;;14.57;7.65;;;;;;;;;;5115643;28;20098;-73
2023/03/20 09:45:25;;;;;;;14.93;6.72;;;;;;;;;;5107058;27;20088;-73
2023/03/20 09:48:11;;;;;;;14.85;6.88;;;;;;;;;;5111608;28;20507;-73
2023/03/20 09:50:41;;;;;;;15.18;6.30;;;;;;;;;;5107663;28;20045;-73
2023/03/20 09:53:22;;;;;;;15.68;5.82;;;;;;;;;;5103793;28;20536;-73
2023/03/20 09:55:50;;;;;;;20.63;6.97;;;;;;;;;;5112816;28;20045;-73
2023/03/20 09:58:24;;;;;;;16.63;7.05;;;;;;;;;;5111917;28;20044;-73
2023/03/20 10:00:53;;;;;;;11.27;6.68;;;;;;;;;;5118457;27;20052;-73
2023/03/20 10:03:21;;;;;;;13.48;6.47;;;;;;;;;;5104181;28;20055;-73
2023/03/20 10:05:54;;;;;;;11.88;6.18;;;;;;;;;;5111427;28;20083;-73
2023/03/20 10:08:24;;;;;;;16.40;6.63;;;;;;;;;;5105216;28;20052;-73
2023/03/20 10:10:55;;;;;;;11.60;6.25;;;;;;;;;;5104089;28;20081;-73
2023/03/20 10:13:37;;;;;;;10.80;6.43;;;;;;;;;;5117799;27;20048;-73
2023/03/20 10:16:26;;;;;;;11.05;5.32;;;;;;;;;;5100804;28;20051;-73
2023/03/20 10:19:08;;;;;;;10.45;5.70;;;;;;;;;;5098557;28;20052;-73
2023/03/20 10:21:39;;;;;;;12.18;6.50;;;;;;;;;;5111326;28;20048;-73
2023/03/20 10:24:14;;;;;;;12.43;5.57;;;;;;;;;;5099662;28;20051;-74
2023/03/20 10:26:41;;;;;;;10.70;5.30;;;;;;;;;;5114884;28;20051;-74
2023/03/20 10:29:15;;;;;;;11.40;5.63;;;;;;;;;;5120404;27;20052;-73
2023/03/20 10:31:44;;;;;;;9.77;5.38;;;;;;;;;;5123743;27;20054;-74
2023/03/20 10:34:29;;;;;;;11.55;5.65;;;;;;;;;;5123599;27;20531;-73
2023/03/20 10:37:15;;;;;;;17.55;6.25;;;;;;;;;;5123398;27;20542;-74
2023/03/20 10:39:51;;;;;;;10.90;5.75;;;;;;;;;;5123205;27;20052;-73
2023/03/20 10:42:25;;;;;;;11.07;5.68;;;;;;;;;;5123637;27;20159;-73
2023/03/20 10:45:01;;;;;;;11.82;5.68;;;;;;;;;;5123399;27;20047;-73
2023/03/20 10:47:29;;;;;;;11.20;6.03;;;;;;;;;;5118592;27;20135;-73
2023/03/20 10:50:05;;;;;;;17.60;6.57;;;;;;;;;;5111141;27;20486;-73
2023/03/20 10:52:34;;;;;;;12.40;6.25;;;;;;;;;;5115959;28;20044;-73
2023/03/20 10:55:11;;;;;;;12.27;6.10;;;;;;;;;;5114585;28;20060;-73
2023/03/20 10:57:40;;;;;;;15.73;6.32;;;;;;;;;;5112280;28;20058;-73
2023/03/20 11:00:12;;;;;;;11.25;5.60;;;;;;;;;;5117417;27;20056;-73
2023/03/20 11:02:39;;;;;;;13.38;6.22;;;;;;;;;;5121015;27;20088;-73
2023/03/20 11:05:20;;;;;;;12.30;6.05;;;;;;;;;;5112552;28;20051;-73
2023/03/20 11:07:48;;;;;;;13.00;6.18;;;;;;;;;;5114700;28;20079;-72
2023/03/20 11:10:15;;;;;;;14.70;5.70;;;;;;;;;;5108645;28;20052;-73
2023/03/20 11:12:47;;;;;;;13.60;6.43;;;;;;;;;;5113998;27;20056;-73
2023/03/20 11:15:18;;;;;;;14.45;6.63;;;;;;;;;;5110274;28;20526;-73
2023/03/20 11:17:51;;;;;;;22.70;7.22;;;;;;;;;;5109509;27;20040;-73
2023/03/20 11:20:18;;;;;;;14.82;7.30;;;;;;;;;;5121922;27;20040;-73
2023/03/20 11:22:46;;;;;;;15.77;8.13;;;;;;;;;;5108296;28;20051;-73
2023/03/20 11:25:24;;;;;;;18.17;8.18;;;;;;;;;;5119560;28;20098;-74
2023/03/20 11:27:53;;;;;;;16.48;9.10;;;;;;;;;;5117835;27;20056;-73
2023/03/20 11:30:19;;;;;;;17.38;7.80;;;;;;;;;;5120674;27;20568;-74
2023/03/20 11:32:47;;;;;;;15.60;8.60;;;;;;;;;;5108403;27;20044;-74
2023/03/20 11:35:21;;;;;;;18.27;10.20;;;;;;;;;;5114231;28;20152;-73
2023/03/20 11:37:51;;;;;;;22.65;9.65;;;;;;;;;;5114488;28;20047;-74
2023/03/20 11:40:22;;;;;;;21.38;9.75;;;;;;;;;;5109827;27;20056;-74
2023/03/20 11:42:53;;;;;;;23.17;9.90;;;;;;;;;;5109172;28;20113;-73
2023/03/20 11:45:19;;;;;;;18.38;9.23;;;;;;;;;;5118538;27;20136;-73
2023/03/20 11:47:50;;;;;;;23.20;11.00;;;;;;;;;;5111885;28;20584;-73
2023/03/20 11:50:25;;;;;;;26.63;10.90;;;;;;;;;;5116219;27;20056;-73
2023/03/20 11:52:52;;;;;;;19.27;10.88;;;;;;;;;;5116959;27;20491;-73
2023/03/20 11:55:32;;;;;;;19.63;10.45;;;;;;;;;;5117080;27;20052;-73
2023/03/20 11:57:59;;;;;;;21.40;10.10;;;;;;;;;;5110762;27;20095;-73
2023/03/20 12:00:36;;;;;;;18.10;10.45;;;;;;;;;;5106392;28;20094;-73
2023/03/20 12:03:23;;;;;;;21.17;10.38;;;;;;;;;;5117806;28;20052;-72
2023/03/20 12:05:50;;;;;;;24.80;11.65;;;;;;;;;;5105098;28;20078;-73
2023/03/20 12:08:21;;;;;;;26.30;11.45;;;;;;;;;;5111385;28;20051;-72
2023/03/20 12:10:51;;;;;;;23.77;12.23;;;;;;;;;;5104595;28;20084;-73
2023/03/20 12:13:22;;;;;;;27.15;11.65;;;;;;;;;;5106260;28;20041;-73
2023/03/20 12:15:50;;;;;;;19.15;11.43;;;;;;;;;;5107839;28;20059;-73
2023/03/20 12:18:17;;;;;;;18.73;10.75;;;;;;;;;;5118854;27;20056;-72
2023/03/20 12:20:43;;;;;;;27.67;11.60;;;;;;;;;;5118749;28;20182;-72
2023/03/20 12:23:13;;;;;;;23.92;12.32;;;;;;;;;;5105045;28;20052;-72
2023/03/20 12:25:52;;;;;;;17.05;12.13;;;;;;;;;;5108949;28;20491;-72
2023/03/20 12:28:29;;;;;;;28.30;12.55;;;;;;;;;;5112359;28;20507;-73
2023/03/20 12:31:16;;;;;;;22.20;12.38;;;;;;;;;;5102809;28;20055;-73
2023/03/20 12:33:48;;;;;;;24.02;13.82;;;;;;;;;;5101292;28;20620;-72
2023/03/20 12:36:17;;;;;;;26.65;13.57;;;;;;;;;;5101572;28;20114;-73
2023/03/20 12:38:44;;;;;;;29.00;14.85;;;;;;;;;;5103125;28;20060;-73
2023/03/20 12:41:18;;;;;;;23.73;12.85;;;;;;;;;;5108652;28;20051;-73
2023/03/20 12:44:03;;;;;;;19.65;13.40;;;;;;;;;;5117275;28;20055;-73
2023/03/20 12:46:40;;;;;;;26.38;14.82;;;;;;;;;;5116596;28;20098;-72
2023/03/20 12:49:12;;;;;;;28.23;14.45;;;;;;;;;;5115274;27;20550;-72
2023/03/20 12:52:02;;;;;;;25.73;14.20;;;;;;;;;;5117854;28;20051;-72
2023/03/20 12:54:34;;;;;;;22.33;13.95;;;;;;;;;;5108793;28;20052;-73
2023/03/20 12:57:10;;;;;;;25.48;15.15;;;;;;;;;;5109122;27;20048;-74
2023/03/20 12:59:56;;;;;;;28.08;13.80;;;;;;;;;;5107272;27;20575;-73
2023/03/20 13:02:28;;;;;;;22.60;15.20;;;;;;;;;;5117500;28;20044;-73
2023/03/20 13:04:55;;;;;;;;;;;;;;;;;;5111949;28;20040;-73
2023/03/20 13:07:24;;;;;;;28.20;14.23;;;;;;;;;;5103512;28;35929;-73
2023/03/20 13:10:00;;;;;;;20.23;14.10;;;;;;;;;;5119680;27;20087;-74
2023/03/20 13:12:41;;;;;;;27.48;14.52;;;;;;;;;;5114885;27;20542;-72
2023/03/20 13:15:23;;;;;;;32.85;15.63;;;;;;;;;;5114906;28;20555;-73
2023/03/20 13:18:08;;;;;;;24.63;15.35;;;;;;;;;;5108570;27;20147;-73
2023/03/20 13:20:45;;;;;;;24.67;14.73;;;;;;;;;;5104718;28;20044;-73
2023/03/20 13:23:11;;;;;;;22.33;15.80;;;;;;;;;;5105568;28;20055;-73
2023/03/20 13:25:55;;;;;;;28.23;15.05;;;;;;;;;;5105066;28;20056;-73
2023/03/20 13:28:29;;;;;;;24.73;14.10;;;;;;;;;;5112869;28;20052;-73
2023/03/20 13:31:02;;;;;;;30.58;15.43;;;;;;;;;;5110249;28;20110;-73
2023/03/20 13:33:35;;;;;;;29.02;14.55;;;;;;;;;;5110679;27;20052;-73
2023/03/20 13:36:08;;;;;;;23.15;15.23;;;;;;;;;;5111955;28;20139;-73
2023/03/20 13:38:37;;;;;;;24.48;14.65;;;;;;;;;;5115615;28;20056;-72
2023/03/20 13:41:08;;;;;;;21.92;15.65;;;;;;;;;;5117896;27;20044;-73
2023/03/20 13:43:45;;;;;;;22.67;12.48;;;;;;;;;;5109031;28;20044;-72
2023/03/20 13:46:21;;;;;;;26.40;15.57;;;;;;;;;;5108927;28;20056;-73
2023/03/20 13:48:48;;;;;;;23.23;14.18;;;;;;;;;;5115895;28;20059;-72
2023/03/20 13:51:25;;;;;;;30.38;16.40;;;;;;;;;;5104592;27;20056;-72
2023/03/20 13:53:54;;;;;;;28.20;14.45;;;;;;;;;;5115781;28;20098;-73
2023/03/20 13:56:21;;;;;;;20.98;14.20;;;;;;;;;;5106780;28;20082;-73
2023/03/20 13:58:51;;;;;;;24.50;15.60;;;;;;;;;;5104242;27;20140;-73
2023/03/20 14:01:30;;;;;;;24.70;15.45;;;;;;;;;;5108191;28;20049;-73
2023/03/20 14:03:57;;;;;;;21.23;15.27;;;;;;;;;;5108445;28;20048;-73
2023/03/20 14:06:29;;;;;;;25.58;15.05;;;;;;;;;;5111512;27;20048;-74
2023/03/20 14:08:58;;;;;;;23.30;12.00;;;;;;;;;;5117546;28;20416;-74
2023/03/20 14:11:31;;;;;;;26.45;15.13;;;;;;;;;;5114855;27;20048;-74
2023/03/20 14:14:11;;;;;;;32.53;16.38;;;;;;;;;;5118124;28;20060;-74
2023/03/20 14:16:38;;;;;;;22.73;14.40;;;;;;;;;;5118477;27;20048;-74
2023/03/20 14:19:06;;;;;;;25.15;13.93;;;;;;;;;;5113747;28;20500;-74
2023/03/20 14:21:34;;;;;;;22.88;13.80;;;;;;;;;;5113981;28;20121;-74
2023/03/20 14:24:05;;;;;;;28.20;15.05;;;;;;;;;;5112462;28;20064;-74
2023/03/20 14:26:36;;;;;;;28.98;14.68;;;;;;;;;;5115560;28;20048;-74
2023/03/20 14:29:08;;;;;;;28.42;15.38;;;;;;;;;;5112159;27;20056;-74
2023/03/20 14:31:40;;;;;;;24.58;15.27;;;;;;;;;;5114522;27;20139;-74
2023/03/20 14:34:10;;;;;;;26.50;14.98;;;;;;;;;;5111599;28;20155;-74
2023/03/20 14:36:50;;;;;;;27.65;14.00;;;;;;;;;;5116696;28;20095;-74
2023/03/20 14:39:24;;;;;;;24.40;15.40;;;;;;;;;;5114474;27;20132;-74
2023/03/20 14:41:57;;;;;;;27.20;15.90;;;;;;;;;;5111296;27;20045;-73
2023/03/20 14:44:23;;;;;;;27.27;15.93;;;;;;;;;;5109199;28;20036;-74
2023/03/20 14:47:08;;;;;;;32.63;17.55;;;;;;;;;;5112394;28;20051;-75
2023/03/20 14:49:41;;;;;;;25.98;16.40;;;;;;;;;;5115537;28;20044;-74
2023/03/20 14:52:21;;;;;;;29.88;16.73;;;;;;;;;;5113053;28;20182;-74